createdAt,value
2018-02-21T00:01:24.250Z,53.70
2018-02-21T00:03:54.259Z,53.50
2018-02-21T00:06:28.711Z,53.40
2018-02-21T00:09:09.518Z,53.40
2018-02-21T00:11:41.601Z,53.50
2018-02-21T00:14:12.503Z,53.60
2018-02-21T00:16:44.813Z,53.40
2018-02-21T00:19:14.196Z,53.50
2018-02-21T00:21:44.080Z,53.70
2018-02-21T00:24:17.667Z,53.90
2018-02-21T00:26:58.876Z,54.00
2018-02-21T00:29:32.096Z,54.10
2018-02-21T00:32:02.892Z,54.10
2018-02-21T00:34:37.838Z,54.10
2018-02-21T00:37:15.174Z,54.30
2018-02-21T00:39:52.432Z,54.20
2018-02-21T00:42:24.172Z,54.10
2018-02-21T00:44:56.622Z,54.20
2018-02-21T00:47:29.559Z,54.10
2018-02-21T00:59:52.748Z,54.00
2018-02-21T01:02:28.340Z,54.20
2018-02-21T01:04:58.773Z,54.40
2018-02-21T01:10:18.688Z,54.40
2018-02-21T01:16:05.567Z,54.40
2018-02-21T01:18:35.490Z,54.70
2018-02-21T01:21:08.923Z,54.80
2018-02-21T01:27:21.628Z,55.10
2018-02-21T01:30:01.475Z,55.10
2018-02-21T01:46:16.376Z,55.80
2018-02-21T02:32:28.628Z,56.60
2018-02-21T02:35:06.324Z,56.70
2018-02-21T02:37:44.183Z,56.70
2018-02-21T02:40:21.153Z,56.70
2018-02-21T02:42:53.023Z,56.70
2018-02-21T02:45:23.922Z,56.50
2018-02-21T02:51:00.141Z,56.40
2018-02-21T02:56:33.040Z,56.10
2018-02-21T02:59:06.359Z,56.20
2018-02-21T03:20:17.083Z,55.90
2018-02-21T03:22:49.060Z,55.80
2018-02-21T03:28:24.456Z,55.60
2018-02-21T03:30:57.496Z,55.50
2018-02-21T03:33:39.717Z,55.50
2018-02-21T03:36:21.423Z,55.40
2018-02-21T03:38:51.224Z,55.40
2018-02-21T03:50:12.832Z,55.00
2018-02-21T03:52:45.894Z,54.90
2018-02-21T04:05:13.702Z,54.60
2018-02-21T04:07:43.501Z,54.70
2018-02-21T04:10:16.532Z,54.70
2018-02-21T05:12:31.716Z,55.30
2018-02-21T05:15:02.485Z,55.80
2018-02-21T05:17:31.698Z,55.70
2018-02-21T05:20:01.514Z,55.70
2018-02-21T05:22:30.699Z,55.60
2018-02-21T05:24:59.876Z,55.70
2018-02-21T05:27:29.060Z,55.60
2018-02-21T05:29:58.228Z,55.50
2018-02-21T05:32:27.408Z,55.40
2018-02-21T05:34:57.194Z,55.30
2018-02-21T05:37:26.265Z,55.30
2018-02-21T05:39:55.312Z,55.00
2018-02-21T05:42:24.408Z,55.20
2018-02-21T05:44:54.203Z,55.40
2018-02-21T05:47:23.225Z,55.40
2018-02-21T05:49:52.378Z,55.50
2018-02-21T05:52:26.888Z,55.50
2018-02-21T05:54:56.866Z,55.60
2018-02-21T05:57:25.941Z,55.60
2018-02-21T05:59:55.809Z,55.30
2018-02-21T06:02:24.905Z,55.30
2018-02-21T06:04:53.964Z,55.20
2018-02-21T06:07:22.992Z,55.30
2018-02-21T06:09:54.004Z,55.20
2018-02-21T06:12:23.139Z,55.10
2018-02-21T06:14:52.209Z,54.90
2018-02-21T06:17:21.375Z,54.80
2018-02-21T06:19:51.215Z,54.50
2018-02-21T06:22:20.240Z,54.50
2018-02-21T06:24:49.288Z,54.60
2018-02-21T06:27:18.308Z,54.70
2018-02-21T06:29:47.752Z,54.80
2018-02-21T06:32:16.780Z,54.80
2018-02-21T06:34:52.170Z,54.80
2018-02-21T06:37:21.919Z,54.60
2018-02-21T06:39:51.740Z,54.30
2018-02-21T06:42:21.513Z,54.30
2018-02-21T06:44:50.579Z,54.40
2018-02-21T06:47:19.596Z,54.10
2018-02-21T06:49:48.755Z,54.10
2018-02-21T06:52:17.803Z,54.10
2018-02-21T06:54:46.831Z,53.80
2018-02-21T06:57:15.878Z,53.70
2018-02-21T06:59:44.902Z,53.50
2018-02-21T07:02:35.422Z,53.30
2018-02-21T07:05:04.434Z,53.30
2018-02-21T07:07:33.477Z,53.20
2018-02-21T07:10:03.309Z,52.90
2018-02-21T07:12:33.189Z,52.90
2018-02-21T07:15:02.208Z,52.80
2018-02-21T07:17:31.993Z,52.60
2018-02-21T07:20:01.036Z,52.60
2018-02-21T07:22:30.055Z,52.50
2018-02-21T07:24:59.512Z,52.50
2018-02-21T07:27:28.566Z,52.40
2018-02-21T07:29:57.586Z,52.30
2018-02-21T07:32:27.394Z,51.70
2018-02-21T07:34:57.187Z,51.60
2018-02-21T07:37:26.238Z,51.50
2018-02-21T07:39:55.255Z,51.20
2018-02-21T07:42:24.326Z,50.90
2018-02-21T07:44:53.360Z,50.70
2018-02-21T07:47:28.992Z,50.40
2018-02-21T07:49:58.017Z,50.20
2018-02-21T07:52:27.032Z,50.00
2018-02-21T07:54:56.855Z,49.30
2018-02-21T07:57:25.928Z,49.20
2018-02-21T07:59:55.942Z,48.80
2018-02-21T08:02:25.764Z,48.10
2018-02-21T08:04:55.553Z,48.00
2018-02-21T08:07:24.590Z,47.80
2018-02-21T08:09:53.607Z,47.90
2018-02-21T08:12:22.655Z,48.20
2018-02-21T08:14:51.699Z,48.00
2018-02-21T08:17:20.720Z,47.60
2018-02-21T08:19:49.775Z,47.00
2018-02-21T08:22:18.792Z,46.80
2018-02-21T08:24:47.839Z,47.10
2018-02-21T08:27:16.991Z,46.40
2018-02-21T08:29:46.002Z,46.40
2018-02-21T08:32:15.787Z,46.80
2018-02-21T08:34:44.827Z,46.80
2018-02-21T08:37:13.834Z,46.80
2018-02-21T08:39:42.882Z,45.80
2018-02-21T08:42:11.902Z,45.00
2018-02-21T08:44:40.989Z,44.50
2018-02-21T08:47:10.770Z,43.70
2018-02-21T08:49:39.792Z,43.60
2018-02-21T08:52:09.600Z,43.20
2018-02-21T08:54:39.390Z,42.40
2018-02-21T08:57:09.295Z,42.40
2018-02-21T08:59:38.731Z,41.90
2018-02-21T09:02:08.548Z,40.10
2018-02-21T09:04:37.611Z,40.10
2018-02-21T09:07:07.565Z,39.50
2018-02-21T09:09:36.966Z,37.50
2018-02-21T09:12:05.994Z,36.50
2018-02-21T09:14:35.024Z,36.40
2018-02-21T09:17:04.173Z,36.30
2018-02-21T09:19:38.360Z,36.30
2018-02-21T09:22:08.203Z,33.70
2018-02-21T09:24:37.229Z,33.70
2018-02-21T09:27:06.717Z,32.40
2018-02-21T09:29:35.746Z,31.20
2018-02-21T09:32:05.565Z,28.20
2018-02-21T09:34:35.421Z,27.50
2018-02-21T09:37:04.495Z,27.50
2018-02-21T09:39:34.296Z,25.70
2018-02-21T09:42:04.085Z,26.20
2018-02-21T09:44:33.174Z,25.50
2018-02-21T09:47:07.133Z,25.40
2018-02-21T09:49:36.215Z,23.90
2018-02-21T09:52:05.243Z,22.60
2018-02-21T09:54:34.291Z,22.80
2018-02-21T09:57:03.354Z,21.90
2018-02-21T09:59:32.444Z,21.70
2018-02-21T10:02:01.462Z,21.10
2018-02-21T10:04:35.813Z,20.40
2018-02-21T10:07:04.851Z,20.40
2018-02-21T10:09:33.934Z,19.70
2018-02-21T10:12:02.962Z,19.30
2018-02-21T10:14:32.768Z,17.60
2018-02-21T10:17:01.834Z,17.60
2018-02-21T10:19:30.872Z,17.90
2018-02-21T10:22:00.657Z,17.70
2018-02-21T10:24:31.650Z,17.70
2018-02-21T10:27:00.692Z,17.30
2018-02-21T10:29:29.745Z,16.90
2018-02-21T10:31:58.835Z,16.70
2018-02-21T10:34:27.894Z,16.70
2018-02-21T10:36:57.697Z,16.30
2018-02-21T10:39:26.750Z,16.30
2018-02-21T10:41:55.771Z,16.10
2018-02-21T10:44:24.854Z,16.00
2018-02-21T10:46:53.896Z,15.30
2018-02-21T10:49:22.931Z,15.40
2018-02-21T10:51:51.979Z,14.60
2018-02-21T10:54:21.813Z,14.70
2018-02-21T10:56:50.848Z,14.60
2018-02-21T10:59:19.944Z,14.50
2018-02-21T11:01:48.971Z,14.20
2018-02-21T11:04:18.795Z,14.10
2018-02-21T11:06:47.823Z,14.10
2018-02-21T11:09:16.928Z,13.80
2018-02-21T11:11:45.956Z,13.60
2018-02-21T11:14:15.758Z,13.30
2018-02-21T11:16:44.918Z,13.20
2018-02-21T11:19:13.947Z,13.70
2018-02-21T11:21:42.981Z,13.30
2018-02-21T11:24:12.059Z,12.90
2018-02-21T11:26:41.855Z,13.30
2018-02-21T11:29:11.711Z,13.00
2018-02-21T11:31:40.730Z,13.00
2018-02-21T11:34:09.789Z,13.40
2018-02-21T11:36:38.835Z,13.10
2018-02-21T11:39:07.899Z,13.40
2018-02-21T11:41:36.928Z,13.30
2018-02-21T11:44:06.041Z,13.00
2018-02-21T11:46:35.844Z,13.30
2018-02-21T11:49:05.734Z,13.20
2018-02-21T11:51:34.771Z,13.20
2018-02-21T11:54:04.570Z,12.90
2018-02-21T11:56:34.392Z,12.80
2018-02-21T11:59:03.446Z,12.80
2018-02-21T12:01:32.481Z,12.60
2018-02-21T12:04:01.552Z,12.80
2018-02-21T12:06:30.573Z,13.00
2018-02-21T12:08:59.643Z,13.30
2018-02-21T12:11:29.489Z,13.50
2018-02-21T12:13:58.530Z,13.10
2018-02-21T12:16:27.581Z,13.20
2018-02-21T12:18:56.649Z,14.10
2018-02-21T12:21:25.680Z,14.70
2018-02-21T12:23:54.746Z,15.70
2018-02-21T12:26:23.779Z,15.60
2018-02-21T12:28:53.024Z,15.40
2018-02-21T12:31:22.835Z,13.90
2018-02-21T12:33:54.644Z,14.20
2018-02-21T12:36:23.774Z,14.10
2018-02-21T12:38:58.487Z,13.70
2018-02-21T12:41:33.066Z,13.70
2018-02-21T12:44:02.139Z,13.20
2018-02-21T12:46:31.934Z,13.10
2018-02-21T12:49:00.977Z,13.10
2018-02-21T12:51:30.391Z,13.40
2018-02-21T12:53:59.475Z,13.40
2018-02-21T12:56:28.566Z,13.80
2018-02-21T12:58:57.829Z,13.60
2018-02-21T13:01:26.952Z,14.10
2018-02-21T13:03:56.923Z,15.00
2018-02-21T13:06:27.115Z,14.80
2018-02-21T13:08:59.480Z,14.80
2018-02-21T13:11:28.563Z,14.60
2018-02-21T13:13:58.148Z,14.80
2018-02-21T13:16:27.210Z,14.80
2018-02-21T13:18:56.571Z,15.30
2018-02-21T13:21:25.879Z,16.00
2018-02-21T13:23:55.154Z,16.40
2018-02-21T13:26:24.440Z,16.60
2018-02-21T13:28:54.272Z,16.80
2018-02-21T13:31:23.618Z,16.80
2018-02-21T13:33:54.176Z,16.60
2018-02-21T13:36:24.003Z,16.00
2018-02-21T13:38:58.340Z,16.00
2018-02-21T13:41:28.118Z,15.60
2018-02-21T13:44:09.321Z,15.30
2018-02-21T13:46:39.073Z,16.00
2018-02-21T13:49:08.198Z,14.80
2018-02-21T13:51:38.036Z,14.60
2018-02-21T13:54:07.111Z,14.00
2018-02-21T13:56:38.739Z,14.20
2018-02-21T13:59:08.586Z,14.00
2018-02-21T14:01:38.617Z,14.20
2018-02-21T14:04:07.765Z,14.20
2018-02-21T14:06:44.436Z,14.40
2018-02-21T15:09:42.453Z,15.80
2018-02-21T15:12:25.747Z,16.00
2018-02-21T15:14:55.290Z,16.00
2018-02-21T15:40:31.767Z,25.80
2018-02-21T15:43:00.812Z,26.80
2018-02-21T15:45:29.872Z,28.20
2018-02-21T15:47:59.837Z,29.80
2018-02-21T15:50:28.916Z,29.70
2018-02-21T15:56:21.009Z,32.10
2018-02-21T15:58:51.687Z,32.60
2018-02-21T16:01:23.967Z,33.10
2018-02-21T16:03:53.229Z,33.10
2018-02-21T16:06:41.547Z,33.70
2018-02-21T16:09:11.717Z,34.70
2018-02-21T16:11:45.102Z,35.30
2018-02-21T16:14:14.385Z,35.30
2018-02-21T16:16:43.440Z,36.30
2018-02-21T16:19:17.400Z,36.00
2018-02-21T16:21:47.796Z,36.30
2018-02-21T16:24:16.822Z,36.70
2018-02-21T16:26:45.958Z,37.10
2018-02-21T16:29:16.121Z,37.40
2018-02-21T16:31:47.725Z,37.70
2018-02-21T16:34:17.289Z,38.20
2018-02-21T16:36:48.382Z,38.20
2018-02-21T16:39:18.338Z,38.60
2018-02-21T16:41:47.399Z,39.60
2018-02-21T16:44:16.465Z,39.40
2018-02-21T16:46:45.598Z,40.00
2018-02-21T16:49:14.640Z,40.20
2018-02-21T16:51:43.712Z,40.60
2018-02-21T16:54:16.536Z,40.80
2018-02-21T16:56:46.408Z,41.80
2018-02-21T16:59:15.443Z,41.80
2018-02-21T17:01:45.312Z,42.50
2018-02-21T17:04:18.680Z,42.50
2018-02-21T17:06:47.764Z,43.00
2018-02-21T17:09:16.805Z,43.50
2018-02-21T17:11:45.854Z,43.90
2018-02-21T17:14:15.357Z,45.10
2018-02-21T17:16:46.420Z,44.80
2018-02-21T17:19:15.494Z,44.90
2018-02-21T17:21:44.605Z,45.80
2018-02-21T17:24:18.962Z,46.10
2018-02-21T17:26:47.989Z,45.80
2018-02-21T17:29:17.861Z,46.60
2018-02-21T17:31:47.151Z,46.60
2018-02-21T17:34:17.455Z,46.80
2018-02-21T17:36:52.765Z,46.90
2018-02-21T17:39:22.582Z,47.30
2018-02-21T17:41:54.470Z,47.20
2018-02-21T17:44:24.883Z,47.20
2018-02-21T17:46:58.148Z,47.40
2018-02-21T17:49:27.226Z,47.60
2018-02-21T17:51:56.262Z,48.00
2018-02-21T17:54:29.491Z,48.30
2018-02-21T17:56:58.538Z,48.30
2018-02-21T17:59:28.377Z,48.60
2018-02-21T18:02:03.310Z,48.40
2018-02-21T18:04:33.438Z,48.60
2018-02-21T18:07:02.612Z,48.80
2018-02-21T18:09:31.694Z,48.90
2018-02-21T18:12:00.724Z,49.00
2018-02-21T18:14:29.813Z,49.00
2018-02-21T18:16:59.601Z,49.40
2018-02-21T18:19:28.622Z,50.00
2018-02-21T18:21:57.698Z,49.70
2018-02-21T18:24:28.467Z,49.90
2018-02-21T18:26:57.616Z,50.40
2018-02-21T18:29:26.773Z,50.80
2018-02-21T18:31:55.852Z,51.10
2018-02-21T18:34:27.355Z,51.30
2018-02-21T18:36:58.063Z,51.70
2018-02-21T18:39:28.727Z,51.90
2018-02-21T18:42:00.282Z,51.90
2018-02-21T18:44:31.322Z,51.70
2018-02-21T18:47:02.049Z,51.70
2018-02-21T18:49:56.018Z,51.50
2018-02-21T18:52:40.824Z,51.50
2018-02-21T18:55:09.984Z,51.70
2018-02-21T18:57:39.296Z,51.70
2018-02-21T19:34:31.474Z,48.60
2018-02-21T19:37:33.487Z,48.60
2018-02-21T19:40:13.143Z,48.60
2018-02-21T20:51:29.285Z,50.40
2018-02-21T20:53:58.322Z,50.50
2018-02-21T20:56:27.449Z,50.60
2018-02-21T20:58:56.516Z,50.60
2018-02-21T21:01:29.233Z,50.50
2018-02-21T21:04:00.412Z,50.60
2018-02-21T21:06:32.805Z,50.90
2018-02-21T21:09:19.933Z,50.90
2018-02-21T21:11:55.511Z,51.70
2018-02-21T21:14:31.960Z,50.70
2018-02-21T21:17:04.637Z,50.70
2018-02-21T21:19:43.000Z,50.40
2018-02-21T21:22:12.279Z,50.40
